Terminal Aerodrome Forecast
Issued by NWS

Home | Current Version | Previous Version | Text Only | Print | Product List | Glossary On
Versions: 1 2 3 4 5 6 7 8 9 10 11 12 13 14 15 16 17 18 19 20
000
FTUS41 KALY 251739
TAFPSF
TAF
KPSF 251739Z 2518/2618 36005KT 2SM -RA BR OVC004
     FM252100 35004KT 4SM BR VCSH OVC008
     FM260000 35004KT P6SM SCT008 OVC015
     FM260600 05004KT 4SM BR FEW250
     FM261100 09005KT P6SM BKN070 PROB30 2616/2617 4SM -FZRA OVC007=

USA.gov is the U.S. government's official web portal to all federal, state and local government web resources and services.